Time;durP1;ratioP1;P1;durP2;ratioP2;P2;SDS_P1;SDS_P2;PMS_P1;PMS_P2;Temp;Humidity;BMP_temperature;BMP_pressure;BME280_temperature;BME280_humidity;BME280_pressure;Samples;Min_cycle;Max_cycle;Signal;HPM_P1;HPM_P2
2022/01/23 00:00:16;;;;;;;39.60;25.93;;;;;5.20;103037.00;;;;10415755;28;20191;-78
2022/01/23 00:05:20;;;;;;;38.03;25.63;;;;;5.20;103045.00;;;;10384719;28;20211;-78
2022/01/23 00:10:22;;;;;;;39.60;26.60;;;;;5.20;103056.00;;;;10405591;28;20712;-78
2022/01/23 00:20:44;;;;;;;39.93;25.13;;;;;5.20;103067.00;;;;10379327;28;20199;-78
2022/01/23 00:31:07;;;;;;;37.93;25.13;;;;;5.20;103059.00;;;;10399306;28;20223;-78
2022/01/23 00:36:09;;;;;;;46.33;27.17;;;;;5.10;103059.00;;;;10375276;28;20662;-78
2022/01/23 00:41:10;;;;;;;42.97;27.13;;;;;5.10;103052.00;;;;10441022;28;20208;-78
2022/01/23 00:51:21;;;;;;;44.23;27.63;;;;;5.10;103048.00;;;;10396061;28;20199;-78
2022/01/23 00:56:23;;;;;;;43.93;26.80;;;;;5.10;103059.00;;;;10355101;28;20275;-78
2022/01/23 01:01:25;;;;;;;41.27;27.27;;;;;5.10;103048.00;;;;10390471;28;20290;-78
2022/01/23 01:06:28;;;;;;;41.53;26.00;;;;;5.10;103045.00;;;;10342062;28;20207;-78
2022/01/23 01:38:24;;;;;;;47.30;27.77;;;;;5.10;103000.00;;;;10357114;28;20226;-78
2022/01/23 01:43:28;;;;;;;48.43;27.90;;;;;5.10;103008.00;;;;10358954;28;20220;-78
2022/01/23 01:48:30;;;;;;;43.53;25.93;;;;;5.00;103000.00;;;;10397805;28;20199;-78
2022/01/23 01:53:41;;;;;;;45.33;27.07;;;;;5.00;103011.00;;;;10333504;28;20187;-78
2022/01/23 02:09:20;;;;;;;52.40;28.40;;;;;5.00;103006.00;;;;10364495;28;20298;-78
2022/01/23 02:56:47;;;;;;;47.30;28.93;;;;;5.00;103003.00;;;;10395194;28;20196;-78
2022/01/23 03:02:10;;;;;;;49.00;29.27;;;;;5.00;103002.00;;;;10345751;28;20207;-78
2022/01/23 03:07:58;;;;;;;46.03;26.93;;;;;5.00;103006.00;;;;10385440;28;20214;-78
2022/01/23 03:29:16;;;;;;;49.23;28.63;;;;;4.90;102988.00;;;;10361265;28;20670;-78
2022/01/23 03:34:25;;;;;;;53.37;29.70;;;;;4.90;102981.00;;;;10393340;28;20206;-78
2022/01/23 03:39:27;;;;;;;51.57;28.93;;;;;4.90;102980.00;;;;10417830;28;20205;-77
2022/01/23 03:44:29;;;;;;;55.97;28.63;;;;;4.90;102979.00;;;;10443527;28;20309;-78
2022/01/23 03:49:31;;;;;;;47.23;29.33;;;;;4.90;102990.00;;;;10387820;28;20202;-78
2022/01/23 03:54:42;;;;;;;46.47;28.03;;;;;5.00;103000.00;;;;10384296;28;20253;-78
2022/01/23 03:59:45;;;;;;;52.13;28.73;;;;;5.00;102998.00;;;;10400888;28;20198;-78
2022/01/23 04:04:48;;;;;;;49.80;29.90;;;;;5.00;103008.00;;;;10359642;28;20686;-78
2022/01/23 04:09:54;;;;;;;48.93;30.00;;;;;5.00;103007.00;;;;10444310;28;20242;-78
2022/01/23 04:15:18;;;;;;;53.67;31.13;;;;;5.00;103013.00;;;;10407372;28;20202;-78
2022/01/23 05:08:16;;;;;;;51.57;30.43;;;;;4.80;103000.00;;;;10415054;28;20238;-78
2022/01/23 05:13:32;;;;;;;56.27;33.40;;;;;4.90;103022.00;;;;10378703;28;20278;-78
2022/01/23 05:18:36;;;;;;;60.33;32.40;;;;;4.90;103010.00;;;;10377042;28;20195;-77
2022/01/23 05:23:38;;;;;;;56.87;31.37;;;;;4.90;103008.00;;;;10406690;28;20203;-77
2022/01/23 05:28:40;;;;;;;55.37;32.47;;;;;4.90;103003.00;;;;10394904;28;20268;-77
2022/01/23 05:33:42;;;;;;;52.43;31.10;;;;;4.90;103016.00;;;;10390540;28;20672;-77
2022/01/23 05:38:45;;;;;;;60.63;33.83;;;;;4.90;103022.00;;;;10438991;28;20195;-77
2022/01/23 05:43:48;;;;;;;54.07;29.77;;;;;4.90;103002.00;;;;10422280;28;20206;-78
2022/01/23 05:48:50;;;;;;;52.13;30.80;;;;;4.90;103002.00;;;;10389562;28;20531;-78
2022/01/23 05:54:11;;;;;;;56.50;31.13;;;;;4.90;103006.00;;;;10381606;28;20972;-78
2022/01/23 05:59:42;;;;;;;56.50;32.30;;;;;4.80;103003.00;;;;10363098;28;20560;-78
2022/01/23 06:04:44;;;;;;;53.90;31.47;;;;;4.80;103004.00;;;;10387752;28;20917;-78
2022/01/23 06:09:57;;;;;;;53.17;30.60;;;;;4.80;103003.00;;;;10418183;28;20233;-78
2022/01/23 06:14:59;;;;;;;55.87;31.93;;;;;4.80;102996.00;;;;10392010;28;20183;-78
2022/01/23 06:20:03;;;;;;;55.80;30.70;;;;;4.80;103001.00;;;;10388080;28;20195;-78
2022/01/23 06:25:32;;;;;;;54.13;30.23;;;;;4.80;103005.00;;;;10403158;28;20199;-78
2022/01/23 06:30:40;;;;;;;56.23;33.37;;;;;4.80;103006.00;;;;10418597;28;20619;-78
2022/01/23 06:35:42;;;;;;;54.90;31.27;;;;;4.90;103012.00;;;;10403154;28;20249;-78
2022/01/23 06:40:44;;;;;;;58.53;33.00;;;;;4.90;103013.00;;;;10416814;28;20198;-78
2022/01/23 06:45:59;;;;;;;55.53;30.87;;;;;4.90;103013.00;;;;10384255;28;20231;-78
2022/01/23 06:51:02;;;;;;;58.40;31.93;;;;;4.90;103032.00;;;;10344865;28;20232;-78
2022/01/23 06:56:04;;;;;;;53.03;31.20;;;;;4.80;103036.00;;;;10365704;28;20195;-78
2022/01/23 07:01:07;;;;;;;61.77;33.23;;;;;4.80;103040.00;;;;10347711;28;20199;-78
2022/01/23 07:06:22;;;;;;;58.90;33.87;;;;;4.80;103051.00;;;;10402178;28;20715;-78
2022/01/23 07:11:54;;;;;;;66.13;35.20;;;;;4.80;103047.00;;;;10379240;28;20282;-78
2022/01/23 07:17:14;;;;;;;55.97;32.57;;;;;4.80;103044.00;;;;10367851;28;20227;-78
2022/01/23 07:22:25;;;;;;;60.60;35.03;;;;;4.90;103061.00;;;;10360323;28;20207;-78
2022/01/23 07:27:30;;;;;;;68.33;35.47;;;;;4.90;103070.00;;;;10367617;28;20294;-78
2022/01/23 07:32:33;;;;;;;57.97;33.13;;;;;4.80;103062.00;;;;10401030;28;20179;-78
2022/01/23 07:37:36;;;;;;;57.87;33.37;;;;;4.80;103064.00;;;;10401015;28;20229;-78
2022/01/23 07:43:02;;;;;;;68.07;33.73;;;;;4.80;103065.00;;;;10383549;28;20194;-78
2022/01/23 07:48:13;;;;;;;66.50;34.13;;;;;4.90;103063.00;;;;10434118;28;20182;-77
2022/01/23 07:53:44;;;;;;;62.93;34.70;;;;;4.90;103070.00;;;;10371989;28;20626;-78
2022/01/23 07:59:07;;;;;;;62.60;35.27;;;;;4.90;103071.00;;;;10357891;28;20203;-78
2022/01/23 08:04:18;;;;;;;62.90;35.10;;;;;5.00;103075.00;;;;10375272;28;20211;-78
2022/01/23 08:09:21;;;;;;;61.73;34.40;;;;;5.00;103077.00;;;;10420148;28;20222;-78
2022/01/23 08:14:23;;;;;;;64.77;35.80;;;;;5.10;103089.00;;;;10383975;28;20635;-78
2022/01/23 08:19:25;;;;;;;62.90;33.60;;;;;5.10;103095.00;;;;10405702;28;20203;-78
2022/01/23 08:24:27;;;;;;;65.60;34.23;;;;;5.10;103087.00;;;;10360893;28;20211;-78
2022/01/23 08:29:29;;;;;;;62.63;35.13;;;;;5.10;103099.00;;;;10383178;28;20198;-78
2022/01/23 08:34:30;;;;;;;59.30;34.27;;;;;5.10;103097.00;;;;10397137;28;20198;-78
2022/01/23 08:39:36;;;;;;;58.23;33.63;;;;;5.10;103102.00;;;;10435127;28;20208;-78
2022/01/23 08:44:38;;;;;;;62.97;34.27;;;;;5.10;103104.00;;;;10394264;28;20270;-78
2022/01/23 08:49:48;;;;;;;59.77;32.97;;;;;5.10;103116.00;;;;10392023;28;20191;-78
2022/01/23 08:54:51;;;;;;;58.70;33.60;;;;;5.20;103117.00;;;;10412019;28;20673;-78
2022/01/23 08:59:53;;;;;;;61.53;34.03;;;;;5.20;103121.00;;;;10389742;28;20221;-78
2022/01/23 09:04:56;;;;;;;61.30;35.00;;;;;5.20;103113.00;;;;10396829;28;20233;-78
2022/01/23 09:10:02;;;;;;;59.50;36.50;;;;;5.30;103118.00;;;;10376345;28;20214;-78
2022/01/23 09:15:06;;;;;;;55.00;33.33;;;;;5.30;103119.00;;;;10348723;28;20195;-78
2022/01/23 09:20:08;;;;;;;60.37;34.37;;;;;5.40;103125.00;;;;10381848;28;20195;-78
2022/01/23 09:25:10;;;;;;;61.40;36.60;;;;;5.50;103119.00;;;;10397571;28;20578;-78
2022/01/23 09:30:20;;;;;;;60.33;35.17;;;;;5.50;103117.00;;;;10348480;28;20219;-78
2022/01/23 09:35:23;;;;;;;61.70;34.90;;;;;5.50;103124.00;;;;10351608;28;20195;-78
2022/01/23 09:40:25;;;;;;;57.93;33.80;;;;;5.50;103129.00;;;;10390070;28;20214;-78
2022/01/23 09:45:30;;;;;;;63.43;36.37;;;;;5.50;103130.00;;;;10356843;28;20211;-77
2022/01/23 09:50:33;;;;;;;63.30;34.30;;;;;5.50;103130.00;;;;10398232;28;20551;-78
2022/01/23 09:55:35;;;;;;;59.17;33.77;;;;;5.60;103134.00;;;;10341044;28;20199;-77
2022/01/23 10:00:37;;;;;;;58.60;32.60;;;;;5.60;103127.00;;;;10352731;28;20242;-78
2022/01/23 10:05:40;;;;;;;59.57;33.87;;;;;5.60;103132.00;;;;10359819;28;20318;-78
2022/01/23 10:10:42;;;;;;;67.93;35.70;;;;;5.70;103135.00;;;;10369077;28;20230;-77
2022/01/23 10:15:43;;;;;;;59.00;34.13;;;;;5.80;103129.00;;;;10347773;28;20203;-77
2022/01/23 10:20:46;;;;;;;59.37;33.33;;;;;5.80;103121.00;;;;10382718;28;20294;-78
2022/01/23 10:25:51;;;;;;;54.83;31.20;;;;;5.90;103130.00;;;;10420740;28;20248;-78
2022/01/23 10:30:56;;;;;;;66.63;37.40;;;;;5.90;103133.00;;;;10416418;28;20204;-78
2022/01/23 10:35:58;;;;;;;60.40;35.07;;;;;5.90;103136.00;;;;10347138;28;20192;-78
2022/01/23 10:47:17;;;;;;;56.87;33.10;;;;;6.00;103124.00;;;;10403976;28;20570;-78
2022/01/23 10:51:49;;;;;;;59.30;34.07;;;;;6.00;103122.00;;;;10419117;28;20713;-77
2022/01/23 10:57:02;;;;;;;62.87;35.80;;;;;6.00;103128.00;;;;10391137;28;20909;-78
2022/01/23 11:02:07;;;;;;;57.57;33.03;;;;;6.00;103121.00;;;;10399810;28;20218;-77
2022/01/23 11:07:10;;;;;;;62.27;34.37;;;;;6.00;103117.00;;;;10385920;28;20226;-78
2022/01/23 11:12:45;;;;;;;60.83;34.77;;;;;6.10;103109.00;;;;10400709;28;20206;-78
2022/01/23 11:17:51;;;;;;;64.33;36.50;;;;;6.20;103108.00;;;;10385446;28;20201;-78
2022/01/23 11:23:22;;;;;;;57.27;34.50;;;;;6.30;103098.00;;;;10402812;28;20187;-77
2022/01/23 11:28:44;;;;;;;63.87;36.03;;;;;6.30;103100.00;;;;10377177;28;20203;-78
2022/01/23 11:33:47;;;;;;;62.53;35.73;;;;;6.30;103095.00;;;;10388725;28;20551;-78
2022/01/23 11:38:53;;;;;;;69.83;36.83;;;;;6.30;103091.00;;;;10406109;28;20211;-78
2022/01/23 11:54:47;;;;;;;54.07;33.27;;;;;6.50;103088.00;;;;10350697;28;20666;-78
2022/01/23 11:59:49;;;;;;;62.73;35.80;;;;;6.60;103078.00;;;;10369481;28;20187;-78
2022/01/23 12:05:09;;;;;;;57.07;33.47;;;;;6.60;103085.00;;;;10400264;28;20215;-78
2022/01/23 12:11:15;;;;;;;50.27;28.30;;;;;6.60;103077.00;;;;10400704;28;20289;-77
2022/01/23 12:17:03;;;;;;;54.37;33.63;;;;;6.70;103077.00;;;;10386438;28;20214;-77
2022/01/23 12:22:25;;;;;;;48.20;30.43;;;;;6.70;103065.00;;;;10413319;28;20219;-78
2022/01/23 12:27:29;;;;;;;50.77;32.57;;;;;6.90;103055.00;;;;10367719;28;20277;-78
2022/01/23 12:32:31;;;;;;;47.13;26.80;;;;;6.90;103055.00;;;;10388678;28;20194;-78
2022/01/23 12:37:55;;;;;;;39.67;24.87;;;;;7.00;103047.00;;;;10375975;28;20196;-78
2022/01/23 12:43:35;;;;;;;42.83;27.77;;;;;7.00;103047.00;;;;10425476;28;20204;-78
2022/01/23 12:48:39;;;;;;;51.13;31.27;;;;;7.00;103043.00;;;;10436061;28;20229;-78
2022/01/23 12:53:47;;;;;;;39.73;26.40;;;;;7.10;103027.00;;;;10418680;28;20194;-77
2022/01/23 12:58:54;;;;;;;41.10;24.63;;;;;7.10;103021.00;;;;10422991;28;20186;-78
2022/01/23 13:04:02;;;;;;;34.87;22.60;;;;;7.20;103021.00;;;;10439240;28;20205;-77
2022/01/23 13:09:59;;;;;;;36.83;22.03;;;;;7.20;103016.00;;;;10406742;28;20245;-78
2022/01/23 13:26:27;;;;;;;39.23;24.53;;;;;7.20;103004.00;;;;10414427;28;20202;-77
2022/01/23 13:31:18;;;;;;;42.13;25.67;;;;;7.10;102996.00;;;;10453028;28;20188;-78
2022/01/23 13:36:21;;;;;;;41.87;25.47;;;;;7.10;102998.00;;;;10430722;28;20194;-78
2022/01/23 13:41:28;;;;;;;44.63;27.07;;;;;7.20;102990.00;;;;10436502;28;20222;-77
2022/01/23 13:51:59;;;;;;;29.83;18.57;;;;;7.30;102990.00;;;;10425241;28;20187;-78
2022/01/23 14:02:45;;;;;;;21.27;14.53;;;;;7.30;102988.00;;;;10368527;28;20217;-78
2022/01/23 14:07:58;;;;;;;23.80;15.67;;;;;7.20;102982.00;;;;10402727;28;20220;-77
2022/01/23 14:13:07;;;;;;;24.03;16.30;;;;;7.20;102982.00;;;;10442653;28;20199;-77
2022/01/23 14:18:12;;;;;;;24.70;17.07;;;;;7.10;102976.00;;;;10435433;28;20242;-78
2022/01/23 14:23:20;;;;;;;31.17;18.30;;;;;7.10;102979.00;;;;10403239;28;20195;-78
2022/01/23 14:28:57;;;;;;;26.07;16.47;;;;;7.10;102972.00;;;;10423251;28;20244;-77
2022/01/23 14:34:00;;;;;;;27.57;18.23;;;;;7.00;102966.00;;;;10380181;28;20194;-78
2022/01/23 14:39:06;;;;;;;28.93;19.43;;;;;6.90;102978.00;;;;10460286;28;20209;-78
2022/01/23 14:44:16;;;;;;;29.33;17.13;;;;;6.90;102968.00;;;;10461689;28;20194;-78
2022/01/23 14:49:24;;;;;;;29.47;19.50;;;;;6.80;102978.00;;;;10467118;28;20289;-78
2022/01/23 14:54:30;;;;;;;29.73;18.43;;;;;6.80;102985.00;;;;10482067;28;20194;-77
2022/01/23 14:59:36;;;;;;;37.47;21.10;;;;;6.70;102976.00;;;;10450533;28;20186;-78
2022/01/23 15:04:44;;;;;;;33.83;21.50;;;;;6.70;102978.00;;;;10426494;28;20233;-78
2022/01/23 15:09:48;;;;;;;35.50;21.70;;;;;6.60;102973.00;;;;10443984;28;20229;-78
2022/01/23 15:14:50;;;;;;;31.63;20.97;;;;;6.50;102978.00;;;;10444011;28;20194;-78
2022/01/23 15:19:53;;;;;;;38.83;22.03;;;;;6.50;102968.00;;;;10460719;28;20205;-78
2022/01/23 15:24:55;;;;;;;34.57;20.63;;;;;6.40;102974.00;;;;10458421;28;20214;-78
2022/01/23 15:29:57;;;;;;;42.03;24.13;;;;;6.40;102971.00;;;;10408990;28;20199;-78
2022/01/23 15:34:59;;;;;;;42.73;25.73;;;;;6.30;102973.00;;;;10368954;28;20203;-78
2022/01/23 15:40:04;;;;;;;38.50;22.63;;;;;6.20;102981.00;;;;10368590;28;20198;-78
2022/01/23 15:45:07;;;;;;;39.00;23.87;;;;;6.20;102974.00;;;;10416744;28;20326;-78
2022/01/23 15:50:11;;;;;;;38.80;23.40;;;;;6.10;102977.00;;;;10433561;28;20191;-78
2022/01/23 15:55:16;;;;;;;33.07;20.97;;;;;6.00;102970.00;;;;10408760;28;20197;-78
2022/01/23 16:00:19;;;;;;;36.80;22.43;;;;;6.00;102972.00;;;;10408323;28;20206;-78
2022/01/23 16:05:22;;;;;;;36.53;22.47;;;;;5.90;102966.00;;;;10439092;28;20211;-77
2022/01/23 16:10:23;;;;;;;36.77;21.67;;;;;5.90;102969.00;;;;10426972;28;20724;-78
2022/01/23 16:15:26;;;;;;;38.87;23.67;;;;;5.90;102977.00;;;;10456607;28;20197;-78
2022/01/23 16:20:29;;;;;;;40.13;23.37;;;;;5.80;102976.00;;;;10421016;28;20233;-77
2022/01/23 16:25:31;;;;;;;43.03;24.73;;;;;5.80;102970.00;;;;10437481;28;20214;-78
2022/01/23 16:30:49;;;;;;;45.07;25.67;;;;;5.80;102968.00;;;;10438290;28;20206;-77
2022/01/23 16:35:51;;;;;;;30.90;18.27;;;;;5.80;102964.00;;;;10455386;28;20190;-77
2022/01/23 16:40:55;;;;;;;29.27;18.07;;;;;5.80;102958.00;;;;10420803;28;20199;-78
2022/01/23 16:45:58;;;;;;;30.10;18.67;;;;;5.70;102971.00;;;;10409955;28;20202;-77
2022/01/23 16:51:02;;;;;;;24.00;15.77;;;;;5.70;102968.00;;;;10394346;28;20191;-78
2022/01/23 16:56:05;;;;;;;28.33;17.40;;;;;5.70;102970.00;;;;10402532;28;20248;-77
2022/01/23 17:01:07;;;;;;;16.60;10.73;;;;;5.60;102963.00;;;;10397455;28;20201;-77
2022/01/23 17:06:09;;;;;;;21.57;12.07;;;;;5.60;102951.00;;;;10437503;28;20217;-77
2022/01/23 17:11:11;;;;;;;17.40;11.67;;;;;5.60;102959.00;;;;10411070;28;20925;-77
2022/01/23 17:16:14;;;;;;;19.67;12.17;;;;;5.60;102956.00;;;;10405154;28;20186;-78
2022/01/23 17:21:17;;;;;;;18.50;12.37;;;;;5.60;102958.00;;;;10413034;28;20203;-78
2022/01/23 17:26:20;;;;;;;18.27;11.40;;;;;5.60;102951.00;;;;10416051;28;20203;-77
2022/01/23 17:31:21;;;;;;;18.73;11.93;;;;;5.60;102955.00;;;;10417734;28;20198;-77
2022/01/23 17:36:23;;;;;;;17.50;11.70;;;;;5.60;102946.00;;;;10434714;28;20214;-77
2022/01/23 17:41:27;;;;;;;19.77;11.70;;;;;5.60;102951.00;;;;10433196;28;20200;-77
2022/01/23 17:46:33;;;;;;;18.67;12.40;;;;;5.60;102944.00;;;;10436289;28;20250;-77
2022/01/23 17:51:36;;;;;;;20.57;12.83;;;;;5.50;102954.00;;;;10451696;28;20202;-78
2022/01/23 17:56:38;;;;;;;21.87;13.90;;;;;5.50;102950.00;;;;10421489;28;20197;-77
2022/01/23 18:01:40;;;;;;;23.47;14.03;;;;;5.50;102953.00;;;;10402363;28;20985;-77
2022/01/23 18:06:43;;;;;;;24.93;13.57;;;;;5.50;102955.00;;;;10406823;28;20228;-77
2022/01/23 18:11:45;;;;;;;26.23;15.10;;;;;5.50;102950.00;;;;10422561;28;20200;-77
2022/01/23 18:16:48;;;;;;;24.07;13.73;;;;;5.50;102951.00;;;;10467242;28;20937;-77
2022/01/23 18:21:49;;;;;;;24.17;14.17;;;;;5.50;102950.00;;;;10449534;28;20662;-77
2022/01/23 18:26:52;;;;;;;26.53;15.03;;;;;5.50;102955.00;;;;10432460;28;20229;-77
2022/01/23 18:31:54;;;;;;;27.93;16.27;;;;;5.40;102960.00;;;;10455467;28;20201;-77
2022/01/23 18:36:56;;;;;;;26.27;15.10;;;;;5.40;102962.00;;;;10428381;28;20220;-77
2022/01/23 18:41:58;;;;;;;27.80;16.83;;;;;5.40;102952.00;;;;10449540;28;20233;-78
2022/01/23 18:47:04;;;;;;;29.77;16.57;;;;;5.30;102959.00;;;;10441599;28;20209;-77
2022/01/23 18:52:06;;;;;;;27.83;16.03;;;;;5.40;102959.00;;;;10438079;28;20194;-78
2022/01/23 18:57:13;;;;;;;28.30;16.90;;;;;5.30;102961.00;;;;10421816;28;20195;-77
2022/01/23 19:02:18;;;;;;;28.40;16.23;;;;;5.30;102957.00;;;;10414046;28;20577;-77
2022/01/23 19:07:25;;;;;;;29.13;16.87;;;;;5.30;102954.00;;;;10386094;28;20210;-77
2022/01/23 19:12:31;;;;;;;29.60;17.70;;;;;5.30;102952.00;;;;10418742;28;20191;-78
2022/01/23 19:17:33;;;;;;;32.10;17.47;;;;;5.30;102957.00;;;;10418633;28;20191;-77
2022/01/23 19:22:37;;;;;;;33.80;18.67;;;;;5.30;102954.00;;;;10429008;28;20225;-77
2022/01/23 19:27:45;;;;;;;31.87;18.60;;;;;5.30;102961.00;;;;10397160;28;20225;-78
2022/01/23 19:32:51;;;;;;;28.80;16.67;;;;;5.30;102955.00;;;;10397376;28;20190;-77
2022/01/23 19:37:57;;;;;;;33.73;18.93;;;;;5.30;102957.00;;;;10425042;28;20193;-77
2022/01/23 19:48:19;;;;;;;33.03;18.77;;;;;5.30;102950.00;;;;10444124;28;20202;-77
2022/01/23 19:53:21;;;;;;;31.07;18.10;;;;;5.30;102945.00;;;;10406450;28;20191;-77
2022/01/23 19:58:23;;;;;;;30.20;18.97;;;;;5.30;102930.00;;;;10428968;28;20189;-77
2022/01/23 20:03:27;;;;;;;31.83;18.23;;;;;5.30;102927.00;;;;10417534;28;20201;-79
2022/01/23 20:08:29;;;;;;;27.70;16.63;;;;;5.30;102930.00;;;;10430210;28;20304;-78
2022/01/23 20:13:31;;;;;;;32.23;18.80;;;;;5.20;102932.00;;;;10407612;28;20208;-78
2022/01/23 20:18:33;;;;;;;29.23;18.07;;;;;5.20;102931.00;;;;10423028;28;20224;-78
2022/01/23 20:23:35;;;;;;;32.47;17.60;;;;;5.20;102929.00;;;;10418012;28;20201;-78
2022/01/23 20:28:37;;;;;;;35.83;18.80;;;;;5.20;102929.00;;;;10408548;28;20230;-78
2022/01/23 20:33:39;;;;;;;40.87;19.70;;;;;5.20;102923.00;;;;10438175;28;20569;-78
2022/01/23 20:38:44;;;;;;;36.47;20.90;;;;;5.20;102933.00;;;;10429243;28;20193;-78
2022/01/23 20:43:47;;;;;;;37.93;20.13;;;;;5.20;102934.00;;;;10384128;28;20216;-78
2022/01/23 20:48:49;;;;;;;35.13;19.93;;;;;5.20;102923.00;;;;10420931;28;20574;-78
2022/01/23 20:53:52;;;;;;;36.43;19.43;;;;;5.20;102923.00;;;;10388980;28;20198;-78
2022/01/23 20:58:55;;;;;;;35.87;18.33;;;;;5.30;102926.00;;;;10404233;28;20273;-78
2022/01/23 21:03:57;;;;;;;36.60;19.57;;;;;5.30;102922.00;;;;10461689;28;20292;-78
2022/01/23 21:08:59;;;;;;;39.87;20.83;;;;;5.30;102920.00;;;;10457186;28;20233;-78
2022/01/23 21:19:23;;;;;;;35.97;20.03;;;;;5.20;102905.00;;;;10420097;28;20192;-78
2022/01/23 21:40:39;;;;;;;40.17;21.80;;;;;5.10;102912.00;;;;10366722;28;20202;-78
2022/01/23 21:45:45;;;;;;;38.47;21.40;;;;;5.10;102914.00;;;;10416741;28;20558;-78
2022/01/23 21:50:48;;;;;;;36.20;20.00;;;;;5.10;102910.00;;;;10413131;28;20218;-78
2022/01/23 21:55:50;;;;;;;36.90;20.17;;;;;5.10;102900.00;;;;10428852;28;20201;-78
2022/01/23 22:00:54;;;;;;;32.33;18.57;;;;;5.10;102907.00;;;;10408783;28;20210;-78
2022/01/23 22:05:56;;;;;;;35.30;18.57;;;;;5.10;102905.00;;;;10423363;28;20261;-78
2022/01/23 22:11:07;;;;;;;31.27;17.43;;;;;5.10;102905.00;;;;10408506;28;20214;-77
2022/01/23 22:16:11;;;;;;;30.37;17.40;;;;;5.10;102904.00;;;;10399535;28;20577;-78
2022/01/23 22:21:14;;;;;;;32.00;17.90;;;;;5.10;102905.00;;;;10424226;28;20214;-78
2022/01/23 22:31:39;;;;;;;30.00;17.33;;;;;5.00;102907.00;;;;10434553;28;20186;-78
2022/01/23 22:36:41;;;;;;;26.00;15.93;;;;;5.00;102906.00;;;;10390178;28;20187;-78
2022/01/23 22:41:43;;;;;;;28.23;16.83;;;;;5.00;102905.00;;;;10405305;28;20199;-78
2022/01/23 22:46:45;;;;;;;29.73;16.47;;;;;4.90;102904.00;;;;10441603;28;20268;-78
2022/01/23 22:51:50;;;;;;;28.00;16.83;;;;;4.80;102900.00;;;;10430184;28;20190;-78
2022/01/23 22:56:52;;;;;;;25.70;16.03;;;;;4.80;102906.00;;;;10412026;28;20197;-78
2022/01/23 23:01:54;;;;;;;27.90;16.73;;;;;4.70;102906.00;;;;10433827;28;20206;-78
2022/01/23 23:06:56;;;;;;;27.53;16.47;;;;;4.70;102914.00;;;;10377805;28;20277;-78
2022/01/23 23:11:59;;;;;;;27.87;16.10;;;;;4.60;102919.00;;;;10442054;28;20214;-78
2022/01/23 23:17:03;;;;;;;26.07;15.57;;;;;4.60;102920.00;;;;10377137;28;20266;-78
2022/01/23 23:22:05;;;;;;;28.53;15.90;;;;;4.50;102918.00;;;;10459337;28;20566;-78
2022/01/23 23:27:11;;;;;;;23.97;14.57;;;;;4.50;102913.00;;;;10403039;28;20207;-78
2022/01/23 23:32:13;;;;;;;24.13;13.83;;;;;4.40;102913.00;;;;10386893;28;20206;-78
2022/01/23 23:37:15;;;;;;;23.27;12.97;;;;;4.40;102906.00;;;;10371420;28;20301;-78
2022/01/23 23:42:30;;;;;;;20.00;12.07;;;;;4.30;102904.00;;;;10484609;28;20205;-78
2022/01/23 23:47:34;;;;;;;22.93;13.43;;;;;4.20;102895.00;;;;10404728;28;20650;-78
2022/01/23 23:52:49;;;;;;;23.60;13.97;;;;;4.20;102901.00;;;;10385329;28;20199;-78
2022/01/23 23:57:51;;;;;;;23.13;13.10;;;;;4.10;102904.00;;;;10385005;28;20194;-78
